M I D A S
Marine Information and Data Acquisition System
Tripno 359 of the Zeeleeuw from 2002-11-18 08:06:18 to 2002-11-18 15:35:00
Back to CruiseResearch ActivitiesStationsMapUnderway DataData graphs

EquipmentUnitsComment
TimeDGPSUTC
LatitudeDGPSDM.mWGS84
LongitudeDGPSDM.mWGS84
TemperatureSBE03/SBE38deg celciusITS90
ConductivitySBE21S/mITS90
SalinitySBE21 Practical Salinity Units
ChlorophylAChelsea fluorimeterg/lCalibrated in Aceton
Missing or incorrect values are displayed as -999
Sea surface data collected by the RV Zeeleeuw from 2002-11-18 08:06:18 to 2002-11-18 15:35:00
                                                                                    Next 1000 lines
Time Latitude Longitude Temperature Conductivity Salinity ChlorophylA
2002-11-18 08:06:28 51°14.704 2°54.441 11.04496 3.652039 32.343959  
2002-11-18 08:06:33 51°14.718 2°54.427 11.049483 3.658994 32.403303  
2002-11-18 08:06:38 51°14.733 2°54.414 11.049483 3.658994 32.403303  
2002-11-18 08:06:42 51°14.745 2°54.404 11.052899 3.67185 32.52218  
2002-11-18 08:06:48 51°14.763 2°54.388 11.055991 3.673958 32.535164  
2002-11-18 08:06:53 51°14.777 2°54.375 11.056499 3.689449 32.680707  
2002-11-18 08:06:58 51°14.792 2°54.361 11.059314 3.697774 32.754938  
2002-11-18 08:07:02 51°14.804 2°54.35 11.057007 3.700409 32.775921  
2002-11-18 08:07:08 51°14.822 2°54.335 11.057007 3.700409 32.775921  
2002-11-18 08:07:13 51°14.836 2°54.322 11.055345 3.706943 32.835333  
2002-11-18 08:07:18 51°14.851 2°54.308 11.05373 3.714425 32.906241  
2002-11-18 08:07:23 51°14.866 2°54.295 11.051145 3.716849 32.926564  
2002-11-18 08:07:28 51°14.88 2°54.281 11.050591 3.722962 32.983972  
2002-11-18 08:07:33 51°14.895 2°54.268 11.049483 3.723805 32.992286  
2002-11-18 08:07:38 51°14.909 2°54.255 11.049483 3.723805 32.992286  
2002-11-18 08:07:42 51°14.921 2°54.245 11.047776 3.72781 33.031782  
2002-11-18 08:07:48 51°14.939 2°54.23 11.045745 3.72665 33.021065  
2002-11-18 08:07:53 51°14.953 2°54.216 11.043529 3.732974 33.082721  
2002-11-18 08:07:58 51°14.968 2°54.204 11.043252 3.734449 33.099434  
2002-11-18 08:08:02 51°14.979 2°54.193 11.043529 3.73192 33.075916  
2002-11-18 08:08:08 51°14.997 2°54.178 11.043529 3.73192 33.075916  
2002-11-18 08:08:13 51°15.011 2°54.164 11.042975 3.736346 33.119591  
2002-11-18 08:08:18 51°15.026 2°54.151 14.827712 3.737822 33.13559  
2002-11-18 08:08:22 51°15.038 2°54.14 11.343675 3.737506 33.13319  
2002-11-18 08:08:28 51°15.055 2°54.125 11.38116 3.735503 33.115587  
2002-11-18 08:08:33 51°15.069 2°54.111 11.38116 3.725702 33.018881  
2002-11-18 08:08:38 51°15.084 2°54.098 11.38116 3.725702 33.018881  
2002-11-18 08:08:42 51°15.096 2°54.087 11.456434 3.739508 33.155113  
2002-11-18 08:08:48 51°15.113 2°54.071 11.456067 3.739403 33.154793  
2002-11-18 08:08:52 51°15.125 2°54.06 11.343032 3.736873 33.129828  
2002-11-18 08:08:58 51°15.143 2°54.044 11.2304 3.736241 33.124307  
2002-11-18 08:09:02 51°15.154 2°54.033 11.305525 3.74014 33.162796  
2002-11-18 08:09:08 51°15.172 2°54.017 11.305525 3.74014 33.162796  
2002-11-18 08:09:13 51°15.186 2°54.004 11.343905 3.738033 33.14199  
2002-11-18 08:09:18 51°15.201 2°53.991 11.231551 3.74014 33.162796  
2002-11-18 08:09:21 51°15.21 2°53.983 11.270158 3.741616 33.17664  
2002-11-18 08:09:28 51°15.231 2°53.964 11.157218 3.738243 33.14479  
2002-11-18 08:09:33 51°15.245 2°53.951 11.158047 3.739614 33.158314  
2002-11-18 08:09:37 51°15.257 2°53.94 11.158047 3.739614 33.158314  
2002-11-18 08:09:43 51°15.274 2°53.925 11.42147 3.741932 33.179761  
2002-11-18 08:09:48 51°15.289 2°53.911 11.234128 3.740246 33.163115  
2002-11-18 08:09:53 51°15.303 2°53.898 11.347581 3.73856 33.145751  
2002-11-18 08:09:58 51°15.318 2°53.884 11.273286 3.74678 33.227624  
2002-11-18 08:10:02 51°15.33 2°53.874 11.387681 3.747307 33.232105  
2002-11-18 08:10:08 51°15.347 2°53.859 11.387681 3.747307 33.232105  
2002-11-18 08:10:13 51°15.362 2°53.845 11.199599 3.74815 33.240431  
2002-11-18 08:10:18 51°15.377 2°53.832 11.238363 3.746464 33.222337  
2002-11-18 08:10:22 51°15.389 2°53.821 11.390345 3.749099 33.246908  
2002-11-18 08:10:28 51°15.406 2°53.805 11.316696 3.751523 33.270843  
2002-11-18 08:10:33 51°15.421 2°53.792 11.469874 3.751944 33.274283  
2002-11-18 08:10:38 51°15.435 2°53.778 11.469874 3.751944 33.274283  
2002-11-18 08:10:43 51°15.45 2°53.765 11.208808 3.75342 33.288131  
2002-11-18 08:10:48 51°15.464 2°53.751 11.323775 3.754474 33.297815  
2002-11-18 08:10:53 51°15.479 2°53.738 11.25019 3.756266 33.314062  
2002-11-18 08:10:58 51°15.494 2°53.724 11.478083 3.758163 33.332074  
2002-11-18 08:11:02 51°15.506 2°53.713 11.442671 3.759217 33.341035  
2002-11-18 08:11:08 51°15.523 2°53.696 11.442671 3.759217 33.341035  
2002-11-18 08:11:13 51°15.537 2°53.682 11.406873 3.759217 33.338138  
2002-11-18 08:11:18 51°15.552 2°53.668 11.258289 3.760692 33.351261  
2002-11-18 08:11:22 51°15.564 2°53.657 11.372296 3.760587 33.347324  
2002-11-18 08:11:28 51°15.582 2°53.64 11.448727 3.762484 33.36316  
2002-11-18 08:11:33 51°15.596 2°53.627 11.373812 3.763327 33.369312  
2002-11-18 08:11:38 51°15.611 2°53.613 11.373812 3.763327 33.369312  
2002-11-18 08:11:42 51°15.623 2°53.603 11.185966 3.767753 33.41085  
2002-11-18 08:11:48 51°15.64 2°53.586 11.374914 3.768807 33.421258  
2002-11-18 08:11:53 51°15.655 2°53.573 11.299869 3.771021 33.44094  
2002-11-18 08:11:58 51°15.67 2°53.559 11.224278 3.770494 33.43501  
2002-11-18 08:12:02 51°15.681 2°53.549 11.299179 3.772918 33.458224  
2002-11-18 08:12:08 51°15.699 2°53.532 11.299179 3.772918 33.458224  
2002-11-18 08:12:13 51°15.714 2°53.519 11.337839 3.776291 33.491538  
2002-11-18 08:12:18 51°15.728 2°53.505 11.266432 3.778399 33.511633  
2002-11-18 08:12:23 51°15.743 2°53.491 11.383273 3.77882 33.514343  
2002-11-18 08:12:28 51°15.757 2°53.478 11.500091 3.782615 33.552556  
2002-11-18 08:12:33 51°15.772 2°53.464 11.203191 3.786936 33.595256  
2002-11-18 08:12:38 51°15.787 2°53.451 11.203191 3.786936 33.595256  
2002-11-18 08:12:42 51°15.798 2°53.44 11.471387 3.788306 33.608067  
2002-11-18 08:12:48 51°15.816 2°53.424 11.325706 3.790309 33.626399  
2002-11-18 08:12:53 51°15.83 2°53.41 11.180991 3.794103 33.661709  
2002-11-18 08:12:58 51°15.845 2°53.397 11.375925 3.795579 33.67264  
2002-11-18 08:13:02 51°15.856 2°53.386 11.386901 3.797476 33.689198  
2002-11-18 08:13:08 51°15.874 2°53.37 11.386901 3.797476 33.689198  
2002-11-18 08:13:13 51°15.888 2°53.356 11.354427 3.790098 33.611912  
2002-11-18 08:13:18 51°15.903 2°53.343 11.363936 3.802957 33.735321  
2002-11-18 08:13:23 51°15.918 2°53.329 11.371653 3.804432 33.745512  
2002-11-18 08:13:28 51°15.932 2°53.315 11.455425 3.805908 33.754238  
2002-11-18 08:13:33 51°15.947 2°53.302 11.351624 3.806329 33.752548  
2002-11-18 08:13:37 51°15.958 2°53.291 11.351624 3.806329 33.752548  
2002-11-18 08:13:42 51°15.973 2°53.278 11.473543 3.808753 33.770643  
2002-11-18 08:13:48 51°15.99 2°53.261 11.405863 3.807489 33.749367  
2002-11-18 08:13:53 51°16.005 2°53.248 11.418349 3.81044 33.771928  
2002-11-18 08:13:58 51°16.019 2°53.234 11.390391 3.810756 33.768465  
2002-11-18 08:14:03 51°16.034 2°53.221 11.253687 3.812653 33.780612  
2002-11-18 08:14:08 51°16.048 2°53.207 11.253687 3.812653 33.780612  
2002-11-18 08:14:13 51°16.063 2°53.193 11.343767 3.81318 33.777036  
2002-11-18 08:14:18 51°16.077 2°53.18 11.468085 3.811283 33.750272  
2002-11-18 08:14:22 51°16.089 2°53.17 11.48143 3.812442 33.753675  
2002-11-18 08:14:28 51°16.107 2°53.154 11.379048 3.814339 33.762163  
2002-11-18 08:14:33 51°16.121 2°53.14 11.574634 3.815498 33.763372  
2002-11-18 08:14:38 51°16.136 2°53.127 11.574634 3.815498 33.763372  
2002-11-18 08:14:42 51°16.148 2°53.116 11.471387 3.81592 33.757308  
2002-11-18 08:14:48 51°16.165 2°53.1 11.367703 3.814655 33.733172  
2002-11-18 08:14:53 51°16.18 2°53.087 11.601461 3.818449 33.758161  
2002-11-18 08:14:58 51°16.195 2°53.073 11.493351 3.818871 33.752836  
2002-11-18 08:15:02 51°16.206 2°53.062 11.763752 3.818027 33.735789  
2002-11-18 08:15:08 51°16.224 2°53.046 11.763752 3.818027 33.735789  
2002-11-18 08:15:13 51°16.239 2°53.033 11.700209 3.820873 33.754337  
2002-11-18 08:15:18 51°16.253 2°53.019 11.517829 3.8214 33.750056  
2002-11-18 08:15:22 51°16.265 2°53.009 11.525482 3.824246 33.769323  
2002-11-18 08:15:28 51°16.282 2°52.993 11.566482 3.824457 33.764115  
2002-11-18 08:15:33 51°16.297 2°52.98 11.494039 3.826248 33.777374  
2002-11-18 08:15:38 51°16.312 2°52.967 11.494039 3.826248 33.777374  
2002-11-18 08:15:42 51°16.324 2°52.957 11.426932 3.828146 33.787297  
2002-11-18 08:15:47 51°16.338 2°52.944 11.658423 3.829516 33.794219  
2002-11-18 08:15:53 51°16.356 2°52.928 11.436339 3.831097 33.803212  
2002-11-18 08:15:58 51°16.37 2°52.914 11.391768 3.832362 33.809094  
2002-11-18 08:16:02 51°16.382 2°52.903 11.478037 3.832467 33.807217  
2002-11-18 08:16:08 51°16.4 2°52.887 11.478037 3.832467 33.807217  
2002-11-18 08:16:13 51°16.415 2°52.873 11.407378 3.832783 33.805229  
2002-11-18 08:16:18 51°16.43 2°52.86 11.410454 3.834575 33.818473  
2002-11-18 08:16:22 51°16.442 2°52.849 11.414264 3.836051 33.825695  
2002-11-18 08:16:28 51°16.46 2°52.832 11.416697 3.838791 33.840973  
2002-11-18 08:16:33 51°16.475 2°52.818 11.419864 3.842585 33.863685  
2002-11-18 08:16:38 51°16.491 2°52.804 11.419864 3.842585 33.863685  
2002-11-18 08:16:42 51°16.503 2°52.793 11.421516 3.844799 33.875956  
2002-11-18 08:16:48 51°16.521 2°52.777 11.423994 3.846485 33.885233  
2002-11-18 08:16:53 51°16.537 2°52.763 11.427528 3.847329 33.889142  
2002-11-18 08:16:58 51°16.553 2°52.751 11.467626 3.848066 33.892015  
2002-11-18 08:17:03 51°16.568 2°52.738 11.431613 3.850175 33.90834  
2002-11-18 08:17:08 51°16.584 2°52.726 11.431613 3.850175 33.90834  
2002-11-18 08:17:13 51°16.6 2°52.713 11.433356 3.851334 33.916079  
2002-11-18 08:17:18 51°16.616 2°52.7 11.436201 3.849964 33.900443  
2002-11-18 08:17:23 51°16.632 2°52.688 11.437486 3.852599 33.922665  
2002-11-18 08:17:28 51°16.648 2°52.676 11.438679 3.853442 33.928755  
2002-11-18 08:17:33 51°16.664 2°52.665 11.43978 3.853864 33.930707  
2002-11-18 08:17:38 51°16.68 2°52.653 11.43978 3.853864 33.930707  
2002-11-18 08:17:42 51°16.693 2°52.644 11.440652 3.854496 33.935456  
2002-11-18 08:17:48 51°16.712 2°52.63 11.440882 3.85555 33.943614  
2002-11-18 08:17:53 51°16.728 2°52.619 11.440882 3.856921 33.954875  
2002-11-18 08:17:58 51°16.744 2°52.608 11.440285 3.857237 33.957249  
2002-11-18 08:18:02 51°16.756 2°52.599 11.441157 3.85808 33.963337  
2002-11-18 08:18:08 51°16.775 2°52.585 11.441157 3.85808 33.963337  
2002-11-18 08:18:13 51°16.791 2°52.574 11.441019 3.859661 33.977395  
2002-11-18 08:18:18 51°16.807 2°52.562 11.441065 3.860926 33.989079  
2002-11-18 08:18:22 51°16.82 2°52.552 11.440377 3.860715 33.98628  
2002-11-18 08:18:28 51°16.839 2°52.539 11.440148 3.861769 33.995895  
2002-11-18 08:18:33 51°16.855 2°52.528 11.440928 3.86314 34.008614  
2002-11-18 08:18:38 51°16.871 2°52.517 11.440928 3.86314 34.008614  
2002-11-18 08:18:43 51°16.887 2°52.506 11.439872 3.863034 34.007579  
2002-11-18 08:18:48 51°16.903 2°52.495 11.438909 3.863245 34.010378  
2002-11-18 08:18:53 51°16.919 2°52.484 11.437624 3.863561 34.012022  
2002-11-18 08:18:58 51°16.935 2°52.473 11.437716 3.863667 34.014517  
2002-11-18 08:19:02 51°16.947 2°52.464 11.437211 3.863772 34.014821  
2002-11-18 08:19:08 51°16.966 2°52.452 11.437211 3.863772 34.014821  
2002-11-18 08:19:13 51°16.982 2°52.441 11.434595 3.864615 34.022367  
2002-11-18 08:19:18 51°16.998 2°52.43 11.471892 3.865459 34.031374  
2002-11-18 08:19:22 51°17.011 2°52.422 11.432806 3.865248 34.030767  
2002-11-18 08:19:28 51°17.03 2°52.409 11.431704 3.860083 33.979344  
2002-11-18 08:19:33 51°17.046 2°52.398 11.430557 3.865564 34.034601  
2002-11-18 08:19:38 51°17.062 2°52.387 11.430557 3.865564 34.034601  
2002-11-18 08:19:42 51°17.075 2°52.379 11.428538 3.866091 34.039775  
2002-11-18 08:19:48 51°17.094 2°52.366 11.426932 3.866829 34.047749  
2002-11-18 08:19:53 51°17.111 2°52.355 11.425004 3.866829 34.049943  
2002-11-18 08:19:58 51°17.127 2°52.344 11.422021 3.866618 34.048604  
2002-11-18 08:20:02 51°17.14 2°52.336 11.419405 3.866513 34.049032  
2002-11-18 08:20:07 51°17.156 2°52.327 11.419405 3.866513 34.049032  
2002-11-18 08:20:13 51°17.175 2°52.315 11.417064 3.866724 34.05037  
2002-11-18 08:20:17 51°17.189 2°52.307 11.415274 3.867462 34.058346  
2002-11-18 08:20:22 51°17.205 2°52.299 11.412382 3.867778 34.062914  
2002-11-18 08:20:28 51°17.225 2°52.287 11.409352 3.867145 34.058167  
2002-11-18 08:20:33 51°17.241 2°52.278 11.406736 3.866302 34.053544  
2002-11-18 08:20:38 51°17.258 2°52.269 11.406736 3.866302 34.053544  
2002-11-18 08:20:42 51°17.271 2°52.261 11.403476 3.866302 34.055739  
2002-11-18 08:20:48 51°17.29 2°52.25 11.400676 3.865986 34.052633  
2002-11-18 08:20:53 51°17.307 2°52.241 11.396819 3.865775 34.052757  
2002-11-18 08:20:58 51°17.323 2°52.231 11.394156 3.865354 34.050811  
2002-11-18 08:21:02 51°17.336 2°52.224 11.39163 3.865248 34.054166  
2002-11-18 08:21:08 51°17.355 2°52.212 11.39163 3.865248 34.054166  
2002-11-18 08:21:13 51°17.372 2°52.203 11.389059 3.865248 34.054166  
2002-11-18 08:21:18 51°17.388 2°52.194 11.386579 3.86451 34.050577  
2002-11-18 08:21:22 51°17.401 2°52.186 11.384696 3.865248 34.060021  
2002-11-18 08:21:28 51°17.421 2°52.175 11.382171 3.864827 34.058807  
2002-11-18 08:21:33 51°17.437 2°52.165 11.380609 3.864089 34.055218  
2002-11-18 08:21:38 51°17.453 2°52.156 11.380609 3.864089 34.055218  
2002-11-18 08:21:42 51°17.466 2°52.148 11.377991 3.863035 34.044861  
2002-11-18 08:21:48 51°17.486 2°52.137 11.375787 3.862824 34.046449  
2002-11-18 08:21:53 51°17.502 2°52.127 11.374409 3.861665 34.037251  
2002-11-18 08:21:58 51°17.519 2°52.118 11.372296 3.86177 34.039751  
2002-11-18 08:22:03 51°17.535 2°52.108 11.37101 3.862086 34.04359  
2002-11-18 08:22:08 51°17.551 2°52.099 11.37101 3.862086 34.04359  
2002-11-18 08:22:13 51°17.567 2°52.089 11.369357 3.860505 34.03098  
2002-11-18 08:22:18 51°17.584 2°52.08 11.367795 3.860294 34.02964  
2002-11-18 08:22:23 51°17.6 2°52.071 11.364028 3.8604 34.032871  
2002-11-18 08:22:28 51°17.616 2°52.061 11.361639 3.859767 34.028851  
2002-11-18 08:22:33 51°17.633 2°52.051 11.397416 3.859135 34.024098  
2002-11-18 08:22:38 51°17.649 2°52.041 11.397416 3.859135 34.024098  
2002-11-18 08:22:42 51°17.662 2°52.033 11.358424 3.858819 34.022454  
2002-11-18 08:22:48 51°17.681 2°52.022 11.355667 3.858608 34.021846  
2002-11-18 08:22:53 51°17.697 2°52.013 11.353875 3.857765 34.01502  
2002-11-18 08:22:58 51°17.713 2°52.003 11.352543 3.857132 34.01173  
2002-11-18 08:23:02 51°17.726 2°51.995 11.350705 3.856816 34.010085  
2002-11-18 08:23:08 51°17.745 2°51.982 11.350705 3.856816 34.010085  
2002-11-18 08:23:13 51°17.761 2°51.97 11.349051 3.856078 34.003564  
2002-11-18 08:23:18 51°17.777 2°51.959 11.34657 3.854919 33.995091  
2002-11-18 08:23:22 51°17.79 2°51.949 11.343124 3.854075 33.988996  
2002-11-18 08:23:28 51°17.809 2°51.936 11.340229 3.853865 33.989118  
2002-11-18 08:23:33 51°17.824 2°51.923 11.337058 3.854075 33.994117  
2002-11-18 08:23:38 51°17.84 2°51.911 11.337058 3.854075 33.994117  
2002-11-18 08:23:42 51°17.853 2°51.902 11.369357 3.853759 33.991007  
2002-11-18 08:23:47 51°17.868 2°51.89 11.318673 3.853865 33.993507  
2002-11-18 08:23:53 51°17.888 2°51.876 11.303869 3.852494 33.981496  
2002-11-18 08:23:58 51°17.904 2°51.864 11.29619 3.852073 33.979545  
2002-11-18 08:24:02 51°17.916 2°51.854 11.287729 3.850702 33.968996  
2002-11-18 08:24:08 51°17.935 2°51.84 11.287729 3.850702 33.968996  
2002-11-18 08:24:13 51°17.951 2°51.828 11.280692 3.849965 33.965397  
2002-11-18 08:24:18 51°17.967 2°51.817 11.274298 3.847856 33.950514  
2002-11-18 08:24:21 51°17.977 2°51.81 11.271814 3.845643 33.936053  
2002-11-18 08:24:28 51°17.999 2°51.793 11.268226 3.842375 33.914872  
2002-11-18 08:24:33 51°18.015 2°51.781 11.263165 3.840267 33.899977  
2002-11-18 08:24:38 51°18.031 2°51.769 11.263165 3.840267 33.899977  
2002-11-18 08:24:42 51°18.043 2°51.759 11.256402 3.837 33.87586  
2002-11-18 08:24:48 51°18.062 2°51.745 11.253457 3.836051 33.874559  
2002-11-18 08:24:53 51°18.078 2°51.733 11.251571 3.83447 33.866301  
2002-11-18 08:24:58 51°18.094 2°51.721 11.248211 3.833838 33.862267  
2002-11-18 08:25:02 51°18.107 2°51.712 11.244668 3.832362 33.852122  
2002-11-18 08:25:08 51°18.126 2°51.697 11.244668 3.832362 33.852122  
2002-11-18 08:25:13 51°18.142 2°51.685 11.240112 3.831519 33.847472  
2002-11-18 08:25:18 51°18.158 2°51.673 11.236246 3.829833 33.835979  
2002-11-18 08:25:22 51°18.171 2°51.664 11.233254 3.829516 33.835786  
2002-11-18 08:25:28 51°18.19 2°51.649 11.229664 3.828462 33.826867  
2002-11-18 08:25:33 51°18.206 2°51.637 11.22727 3.827408 33.820138  
2002-11-18 08:25:38 51°18.222 2°51.625 11.22727 3.827408 33.820138  
2002-11-18 08:25:42 51°18.234 2°51.615 11.223127 3.825722 33.80718  
2002-11-18 08:25:48 51°18.254 2°51.6 11.221838 3.825195 33.806369  
2002-11-18 08:25:53 51°18.269 2°51.588 11.219582 3.824773 33.805866  
2002-11-18 08:25:58 51°18.285 2°51.576 11.218063 3.824141 33.801827  
2002-11-18 08:26:02 51°18.298 2°51.566 11.215208 3.823298 33.79863  
2002-11-18 08:26:08 51°18.317 2°51.551 11.215208 3.823298 33.79863  
2002-11-18 08:26:13 51°18.333 2°51.539 11.213689 3.822665 33.79313  
2002-11-18 08:26:17 51°18.346 2°51.529 11.211249 3.821822 33.788472  
2002-11-18 08:26:22 51°18.362 2°51.516 11.210006 3.82119 33.783701  
2002-11-18 08:26:27 51°18.378 2°51.504 11.207565 3.820557 33.780389  
2002-11-18 08:26:33 51°18.397 2°51.49 11.203559 3.820241 33.777274  
2002-11-18 08:26:38 51°18.413 2°51.477 11.203559 3.820241 33.777274  
2002-11-18 08:26:41 51°18.422 2°51.47 11.203421 3.820136 33.778424  
2002-11-18 08:26:48 51°18.445 2°51.453 11.202546 3.819398 33.773344  
2002-11-18 08:26:53 51°18.46 2°51.44 11.19923 3.818765 33.768572  
2002-11-18 08:26:58 51°18.476 2°51.428 11.198724 3.81866 33.768992  
2002-11-18 08:27:03 51°18.492 2°51.415 11.195408 3.818239 33.767027  
2002-11-18 08:27:07 51°18.505 2°51.405 11.195408 3.818239 33.767027  
2002-11-18 08:27:13 51°18.524 2°51.39 11.192967 3.81729 33.760597  
2002-11-18 08:27:18 51°18.54 2°51.378 11.194164 3.816658 33.755824  
2002-11-18 08:27:22 51°18.553 2°51.368 11.186473 3.81613 33.752089  
2002-11-18 08:27:27 51°18.569 2°51.356 11.179978 3.815709 33.749393  
2002-11-18 08:27:33 51°18.588 2°51.341 11.174957 3.815077 33.746078  
2002-11-18 08:27:38 51°18.603 2°51.328 11.174957 3.815077 33.746078  
2002-11-18 08:27:42 51°18.616 2°51.318 11.167447 3.814866 33.74473  
2002-11-18 08:27:48 51°18.635 2°51.303 11.162839 3.814444 33.742033  
2002-11-18 08:27:53 51°18.651 2°51.29 11.154453 3.813285 33.732793  
2002-11-18 08:27:58 51°18.667 2°51.277 11.147724 3.812125 33.725011  
2002-11-18 08:28:03 51°18.682 2°51.265 11.138644 3.810334 33.71391  
2002-11-18 08:28:08 51°18.698 2°51.252 11.138644 3.810334 33.71391  
2002-11-18 08:28:13 51°18.714 2°51.239 11.129286 3.808963 33.704047  
2002-11-18 08:28:17 51°18.727 2°51.229 11.119097 3.806961 33.689405  
2002-11-18 08:28:23 51°18.745 2°51.214 11.107246 3.805485 33.679957  
2002-11-18 08:28:28 51°18.761 2°51.201 11.09853 3.803588 33.667077  
2002-11-18 08:28:33 51°18.777 2°51.188 11.086214 3.801691 33.654924  
2002-11-18 08:28:37 51°18.789 2°51.177 11.086214 3.801691 33.654924  
2002-11-18 08:28:42 51°18.805 2°51.164 11.074357 3.799478 33.639648  
2002-11-18 08:28:47 51°18.821 2°51.151 11.065636 3.796316 33.617923  
2002-11-18 08:28:53 51°18.84 2°51.136 11.056499 3.794735 33.612519  
2002-11-18 08:28:58 51°18.856 2°51.123 11.05433 3.791994 33.589845  
2002-11-18 08:29:02 51°18.869 2°51.113 11.046068 3.788516 33.567164  
2002-11-18 08:29:08 51°18.887 2°51.097 11.046068 3.788516 33.567164  
2002-11-18 08:29:13 51°18.903 2°51.085 11.034527 3.785671 33.547077  
2002-11-18 08:29:18 51°18.919 2°51.072 11.026955 3.782509 33.526045  
2002-11-18 08:29:22 51°18.932 2°51.062 11.021091 3.779979 33.509067  
2002-11-18 08:29:28 51°18.951 2°51.046 11.010238 3.777871 33.497702  
2002-11-18 08:29:33 51°18.967 2°51.034 11.005574 3.775764 33.483425  
2002-11-18 08:29:38 51°18.983 2°51.02 11.005574 3.775764 33.483425  
2002-11-18 08:29:42 51°18.995 2°51.01 10.996289 3.773023 33.462171  
2002-11-18 08:29:47 51°19.011 2°50.997 10.992686 3.770915 33.450065  
2002-11-18 08:29:53 51°19.03 2°50.982 11.026632 3.768281 33.43057  
2002-11-18 08:29:58 51°19.046 2°50.969 10.981829 3.766384 33.418359  
2002-11-18 08:30:03 51°19.062 2°50.956 10.977162 3.764487 33.406872  
2002-11-18 08:30:08 51°19.078 2°50.944 10.977162 3.764487 33.406872  
2002-11-18 08:30:13 51°19.094 2°50.931 10.972125 3.762063 33.388721  
2002-11-18 08:30:18 51°19.11 2°50.918 10.970646 3.760271 33.377543  
2002-11-18 08:30:21 51°19.119 2°50.911 10.972495 3.75869 33.366994  
2002-11-18 08:30:28 51°19.142 2°50.894 10.976377 3.757425 33.358844  
2002-11-18 08:30:33 51°19.158 2°50.881 10.978225 3.755844 33.347567  
2002-11-18 08:30:38 51°19.174 2°50.868 10.978225 3.755844 33.347567  
2002-11-18 08:30:42 51°19.187 2°50.858 10.977717 3.754264 33.337012  
2002-11-18 08:30:47 51°19.203 2°50.845 10.975175 3.753842 33.33647  
2002-11-18 08:30:53 51°19.221 2°50.83 10.973096 3.753315 33.334885  
2002-11-18 08:30:57 51°19.234 2°50.82 10.967227 3.753315 33.33416  
2002-11-18 08:31:02 51°19.25 2°50.807 10.96584 3.754369 33.343131  
2002-11-18 08:31:08 51°19.269 2°50.791 10.96584 3.754369 33.343131  
2002-11-18 08:31:13 51°19.285 2°50.778 10.966996 3.754474 33.342723  
2002-11-18 08:31:18 51°19.301 2°50.766 10.963113 3.754053 33.338554  
2002-11-18 08:31:22 51°19.314 2°50.755 10.960664 3.753315 33.333434  
2002-11-18 08:31:27 51°19.33 2°50.742 10.959878 3.752999 33.332483  
2002-11-18 08:31:33 51°19.349 2°50.727 10.961912 3.751418 33.319024  
2002-11-18 08:31:38 51°19.365 2°50.714 10.961912 3.751418 33.319024  
2002-11-18 08:31:42 51°19.378 2°50.704 10.958908 3.751524 33.322242  
2002-11-18 08:31:48 51°19.397 2°50.689 10.95692 3.750997 33.319205  
2002-11-18 08:31:53 51°19.413 2°50.676 10.964685 3.749837 33.309189  
2002-11-18 08:31:58 51°19.429 2°50.664 10.965471 3.749521 33.308236  
2002-11-18 08:32:03 51°19.445 2°50.652 10.964639 3.749416 33.307194  
2002-11-18 08:32:08 51°19.461 2°50.639 10.964639 3.749416 33.307194  
2002-11-18 08:32:13 51°19.476 2°50.626 10.965979 3.748256 33.296452  
2002-11-18 08:32:18 51°19.492 2°50.613 10.967134 3.748362 33.29677  
2002-11-18 08:32:21 51°19.502 2°50.606 10.970739 3.748256 33.296452  
2002-11-18 08:32:28 51°19.524 2°50.589 10.971386 3.749205 33.302935  
2002-11-18 08:32:32 51°19.536 2°50.579 10.971663 3.749943 33.310956  
2002-11-18 08:32:38 51°19.555 2°50.564 10.971663 3.749943 33.310956  
2002-11-18 08:32:43 51°19.571 2°50.552 10.978363 3.749943 33.310231  
2002-11-18 08:32:48 51°19.587 2°50.54 10.980535 3.750786 33.317846  
2002-11-18 08:32:53 51°19.603 2°50.528 10.985294 3.751313 33.321607  
2002-11-18 08:32:58 51°19.619 2°50.516 10.986311 3.751945 33.326411  
2002-11-18 08:33:02 51°19.632 2°50.506 10.991901 3.752472 33.329447  
2002-11-18 08:33:08 51°19.651 2°50.491 10.991901 3.752472 33.329447  
2002-11-18 08:33:13 51°19.667 2°50.479 10.994903 3.753421 33.337378  
2002-11-18 08:33:18 51°19.683 2°50.467 11.00659 3.754685 33.346258  
2002-11-18 08:33:22 51°19.696 2°50.457 11.024923 3.755528 33.35242  
2002-11-18 08:33:28 51°19.715 2°50.443 11.058991 3.757109 33.365151  
2002-11-18 08:33:33 51°19.731 2°50.431 11.078233 3.757952 33.371311  
2002-11-18 08:33:38 51°19.747 2°50.419 11.078233 3.757952 33.371311  
2002-11-18 08:33:43 51°19.763 2°50.407 11.086445 3.759639 33.384356  
2002-11-18 08:33:48 51°19.78 2°50.395 11.090273 3.761852 33.401157  
2002-11-18 08:33:53 51°19.796 2°50.382 11.095855 3.76533 33.426827  
2002-11-18 08:33:58 51°19.813 2°50.37 11.102911 3.771021 33.46346  
2002-11-18 08:34:03 51°19.83 2°50.358 11.107708 3.778188 33.516099  
2002-11-18 08:34:07 51°19.843 2°50.348 11.107708 3.778188 33.516099  
2002-11-18 08:34:13 51°19.863 2°50.333 11.112273 3.783247 33.553706  
2002-11-18 08:34:18 51°19.879 2°50.32 11.116239 3.787041 33.579533  
2002-11-18 08:34:23 51°19.896 2°50.308 11.118913 3.788411 33.585052  
2002-11-18 08:34:27 51°19.91 2°50.298 11.123708 3.790624 33.600351  
2002-11-18 08:34:33 51°19.93 2°50.283 11.129425 3.791995 33.608051  
2002-11-18 08:34:37 51°19.943 2°50.273 11.129425 3.791995 33.608051  
2002-11-18 08:34:41 51°19.957 2°50.263 11.135694 3.79347 33.617518  
2002-11-18 08:34:48 51°19.98 2°50.246 11.140765 3.793997 33.618349  
2002-11-18 08:34:53 51°19.997 2°50.233 11.146848 3.795683 33.630622  
2002-11-18 08:34:58 51°20.013 2°50.221 11.152471 3.796737 33.637381  
2002-11-18 08:35:02 51°20.027 2°50.21 11.159337 3.798318 33.649341  
2002-11-18 08:35:08 51°20.047 2°50.195 11.159337 3.798318 33.649341  
2002-11-18 08:35:13 51°20.064 2°50.182 11.162148 3.799689 33.659218  
2002-11-18 08:35:18 51°20.08 2°50.169 11.168276 3.801586 33.670648  
2002-11-18 08:35:21 51°20.091 2°50.162 11.174588 3.802429 33.674593  
2002-11-18 08:35:28 51°20.114 2°50.144 11.176523 3.80401 33.684357  
2002-11-18 08:35:33 51°20.131 2°50.13 11.168829 3.805064 33.691108  
2002-11-18 08:35:38 51°20.148 2°50.117 11.168829 3.805064 33.691108  
2002-11-18 08:35:42 51°20.161 2°50.107 11.16307 3.806118 33.69713  
2002-11-18 08:35:48 51°20.181 2°50.091 11.16201 3.808226 33.711357  
2002-11-18 08:35:53 51°20.197 2°50.078 11.313018 3.80949 33.718725  
2002-11-18 08:35:58 51°20.214 2°50.065 11.19923 3.810439 33.725161  
2002-11-18 08:36:02 51°20.228 2°50.054 11.239836 3.810755 33.72682  
2002-11-18 08:36:08 51°20.247 2°50.038 11.239836 3.810755 33.72682  
2002-11-18 08:36:13 51°20.264 2°50.025 11.20029 3.809912 33.720694  
2002-11-18 08:36:18 51°20.281 2°50.011 11.349878 3.809385 33.718415  
2002-11-18 08:36:22 51°20.294 2°50 11.161227 3.809491 33.720913  
2002-11-18 08:36:27 51°20.31 2°49.986 11.348729 3.80928 33.721753  
2002-11-18 08:36:33 51°20.33 2°49.969 11.500503 3.805907 33.688487  
2002-11-18 08:36:38 51°20.346 2°49.954 11.500503 3.805907 33.688487  
2002-11-18 08:36:42 51°20.359 2°49.942 11.312881 3.805485 33.685788  
2002-11-18 08:36:48 51°20.379 2°49.922 11.34487 3.807172 33.70242  
2002-11-18 08:36:53 51°20.394 2°49.907 11.264684 3.807172 33.70242  
2002-11-18 08:36:58 51°20.41 2°49.891 11.299869 3.808437 33.715625  
2002-11-18 08:37:02 51°20.423 2°49.878 11.178688 3.806329 33.695562  
2002-11-18 08:37:08 51°20.442 2°49.858 11.178688 3.806329 33.695562  
2002-11-18 08:37:13 51°20.457 2°49.842 11.251433 3.803799 33.669885  
2002-11-18 08:37:18 51°20.473 2°49.826 11.324557 3.800742 33.641927  
2002-11-18 08:37:23 51°20.489 2°49.808 11.43611 3.800426 33.640993  
2002-11-18 08:37:28 51°20.504 2°49.791 11.363523 3.79874 33.628002  
2002-11-18 08:37:33 51°20.519 2°49.773 11.178273 3.798318 33.628212  
2002-11-18 08:37:38 51°20.534 2°49.755 11.178273 3.798318 33.628212  
2002-11-18 08:37:42 51°20.546 2°49.74 11.292374 3.799267 33.640482  
2002-11-18 08:37:48 51°20.563 2°49.716 11.217879 3.799688 33.648284  
2002-11-18 08:37:53 51°20.577 2°49.696 11.406552 3.799688 33.65047  
2002-11-18 08:37:58 51°20.592 2°49.676 11.294673 3.800637 33.660559  
2002-11-18 08:38:02 51°20.604 2°49.66 11.219628 3.801902 33.67231  
2002-11-18 08:38:08 51°20.62 2°49.636 11.219628 3.801902 33.67231  
2002-11-18 08:38:13 51°20.634 2°49.614 11.4105 3.801902 33.670851  
2002-11-18 08:38:18 51°20.648 2°49.593 11.261509 3.80285 33.680211  
2002-11-18 08:38:23 51°20.662 2°49.572 11.342388 3.804642 33.694973  
2002-11-18 08:38:28 51°20.676 2°49.551 11.233254 3.805064 33.699863  
2002-11-18 08:38:33 51°20.69 2°49.529 11.27255 3.806223 33.710574  
2002-11-18 08:38:38 51°20.703 2°49.507 11.27255 3.806223 33.710574  
2002-11-18 08:38:42 51°20.714 2°49.49 11.314673 3.806539 33.711504  
2002-11-18 08:38:48 51°20.731 2°49.464 11.322166 3.80675 33.711395  
2002-11-18 08:38:53 51°20.745 2°49.442 11.289062 3.80812 33.723454  
2002-11-18 08:38:58 51°20.758 2°49.42 11.254792 3.808964 33.728853  
2002-11-18 08:39:02 51°20.769 2°49.403 11.449186 3.809491 33.731863  
2002-11-18 08:39:08 51°20.786 2°49.377 11.449186 3.809491 33.731863  
2002-11-18 08:39:13 51°20.8 2°49.356 11.340734 3.810228 33.735491  
2002-11-18 08:39:18 51°20.813 2°49.334 11.493306 3.811704 33.747857  
2002-11-18 08:39:23 51°20.827 2°49.311 11.379323 3.812758 33.753142  
2002-11-18 08:39:28 51°20.841 2°49.289 11.338436 3.814234 33.764045  
2002-11-18 08:39:33 51°20.854 2°49.267 11.44446 3.815182 33.767557  
2002-11-18 08:39:38 51°20.868 2°49.246 11.44446 3.815182 33.767557  
2002-11-18 08:39:42 51°20.879 2°49.229 11.361226 3.815077 33.762135  
2002-11-18 08:39:48 51°20.896 2°49.204 11.349465 3.81729 33.781041  
2002-11-18 08:39:53 51°20.91 2°49.183 11.592581 3.817712 33.783006  
2002-11-18 08:39:57 51°20.922 2°49.166 11.1721 3.817712 33.783737  
2002-11-18 08:40:02 51°20.936 2°49.145 11.465883 3.816763 33.776574  
2002-11-18 08:40:08 51°20.953 2°49.12 11.465883 3.816763 33.776574  
2002-11-18 08:40:13 51°20.967 2°49.1 11.503116 3.816236 33.77503  
2002-11-18 08:40:18 51°20.982 2°49.08 11.393697 3.813917 33.760196  
2002-11-18 08:40:23 51°20.997 2°49.061 11.326441 3.810861 33.738808  
2002-11-18 08:40:28 51°21.011 2°49.041 11.261463 3.808331 33.724804  
2002-11-18 08:40:33 51°21.026 2°49.023 11.384054 3.806118 33.711724  
2002-11-18 08:40:38 51°21.042 2°49.006 11.384054 3.806118 33.711724  
2002-11-18 08:40:42 51°21.054 2°48.992 11.285015 3.805275 33.708513  
2002-11-18 08:40:48 51°21.073 2°48.972 11.339861 3.805169 33.709663  
2002-11-18 08:40:53 51°21.09 2°48.957 11.99557 3.80538 33.710284  
2002-11-18 08:40:58 51°21.106 2°48.942 11.454875 3.806961 33.721506  
2002-11-18 08:41:02 51°21.119 2°48.932 11.495369 3.809807 33.741556  
2002-11-18 08:41:08 51°21.139 2°48.915 11.495369 3.809807 33.741556  
2002-11-18 08:41:13 51°21.156 2°48.903 11.465975 3.81318 33.765338  
2002-11-18 08:41:18 51°21.173 2°48.89 11.235371 3.816236 33.783799  
2002-11-18 08:41:23 51°21.191 2°48.879 11.199369 3.81982 33.80745  
2002-11-18 08:41:27 51°21.205 2°48.871 11.191723 3.823931 33.834092  
2002-11-18 08:41:33 51°21.226 2°48.862 11.198632 3.827198 33.853139  
2002-11-18 08:41:37 51°21.24 2°48.857 11.198632 3.827198 33.853139  
2002-11-18 08:41:41 51°21.255 2°48.853 11.223771 3.829622 33.868987  
2002-11-18 08:41:47 51°21.276 2°48.847 11.353232 3.830255 33.869367  
2002-11-18 08:41:53 51°21.297 2°48.843 11.454737 3.828041 33.850479  
2002-11-18 08:41:57 51°21.312 2°48.84 11.515446 3.825301 33.834437  
2002-11-18 08:42:03 51°21.333 2°48.835 11.552925 3.824247 33.828434  
2002-11-18 08:42:07 51°21.348 2°48.833 11.552925 3.824247 33.828434  
2002-11-18 08:42:13 51°21.369 2°48.828 11.575229 3.825511 33.83359  
2002-11-18 08:42:17 51°21.384 2°48.825 11.59194 3.834681 33.888111  
2002-11-18 08:42:21 51°21.398 2°48.822 11.603979 3.852495 34.00199  
2002-11-18 08:42:27 51°21.42 2°48.817 11.610249 3.865776 34.07179  
2002-11-18 08:42:33 51°21.441 2°48.813 11.616473 3.879689 34.133717  
2002-11-18 08:42:38 51°21.459 2°48.809 11.616473 3.879689 34.133717  
2002-11-18 08:42:42 51°21.473 2°48.806 11.622742 3.887595 34.177575  
2002-11-18 08:42:48 51°21.495 2°48.801 11.667797 3.895817 34.223742  
2002-11-18 08:42:53 51°21.513 2°48.797 11.6372 3.901087 34.257793  
2002-11-18 08:42:58 51°21.531 2°48.794 11.642415 3.903828 34.268516  
2002-11-18 08:43:02 51°21.545 2°48.791 11.652752 3.906252 34.283461  
2002-11-18 08:43:08 51°21.567 2°48.786 11.652752 3.906252 34.283461  
2002-11-18 08:43:13 51°21.585 2°48.782 11.659383 3.908255 34.290612  
2002-11-18 08:43:18 51°21.602 2°48.778 11.667889 3.909626 34.298895  
2002-11-18 08:43:22 51°21.617 2°48.775 11.682017 3.911523 34.308671  
2002-11-18 08:43:28 51°21.638 2°48.77 11.685491 3.911945 34.306205  
2002-11-18 08:43:33 51°21.656 2°48.766 11.691388 3.913526 34.314348  
2002-11-18 08:43:38 51°21.674 2°48.761 11.691388 3.913526 34.314348  
2002-11-18 08:43:44 51°21.696 2°48.757 11.698061 3.915423 34.327779  
2002-11-18 08:43:49 51°21.714 2°48.753 11.704871 3.916266 34.327237  
2002-11-18 08:43:54 51°21.732 2°48.749 11.712091 3.917637 34.331849  
2002-11-18 08:43:59 51°21.75 2°48.746 11.72027 3.918796 34.334399  
2002-11-18 08:44:04 51°21.768 2°48.741 11.731737 3.919745 34.336352  
2002-11-18 08:44:09 51°21.786 2°48.737 11.731737 3.919745 34.336352  
2002-11-18 08:44:14 51°21.804 2°48.732 11.737036 3.920905 34.341827  
2002-11-18 08:44:18 51°21.818 2°48.729 11.739777 3.921748 34.343481  
2002-11-18 08:44:24 51°21.84 2°48.724 11.74439 3.922697 34.347627  
2002-11-18 08:44:29 51°21.858 2°48.72 11.751469 3.922907 34.341639  
2002-11-18 08:44:34 51°21.876 2°48.716 11.758638 3.924594 34.350065  
2002-11-18 08:44:38 51°21.89 2°48.713 11.758638 3.924594 34.350065  
2002-11-18 08:44:44 51°21.912 2°48.708 11.766492 3.925648 34.353775  
2002-11-18 08:44:49 51°21.93 2°48.704 11.77092 3.926597 34.357919  
2002-11-18 08:44:54 51°21.948 2°48.7 11.775349 3.927335 34.360003  
2002-11-18 08:44:59 51°21.966 2°48.695 11.781922 3.927967 34.359596  
2002-11-18 08:45:04 51°21.984 2°48.692 11.788769 3.9286 34.35919  
2002-11-18 08:45:09 51°22.002 2°48.688 11.788769 3.9286 34.35919  
2002-11-18 08:45:14 51°22.02 2°48.684 11.792055 3.929548 34.364062  
2002-11-18 08:45:19 51°22.038 2°48.68 11.799403 3.92997 34.361599  
2002-11-18 08:45:24 51°22.056 2°48.676 11.805974 3.930813 34.365442  
2002-11-18 08:45:29 51°22.074 2°48.672 11.81259 3.931129 34.361952  
2002-11-18 08:45:34 51°22.092 2°48.668 11.817837 3.932816 34.372556  
2002-11-18 08:45:38 51°22.107 2°48.664 11.817837 3.932816 34.372556  
2002-11-18 08:45:43 51°22.125 2°48.66 11.823494 3.933448 34.37361  
2002-11-18 08:45:49 51°22.147 2°48.655 11.829697 3.93387 34.37407  
2002-11-18 08:45:53 51°22.161 2°48.652 11.838455 3.934503 34.375124  
2002-11-18 08:45:59 51°22.182 2°48.647 11.846025 3.935557 34.378098  
2002-11-18 08:46:04 51°22.201 2°48.644 11.855556 3.936189 34.379882  
2002-11-18 08:46:09 51°22.219 2°48.639 11.855556 3.936189 34.379882  
2002-11-18 08:46:13 51°22.233 2°48.638 11.867364 3.936927 34.380503  
2002-11-18 08:46:18 51°22.251 2°48.633 11.882315 3.937665 34.383313  
2002-11-18 08:46:23 51°22.269 2°48.63 11.893162 3.938403 34.383205  
2002-11-18 08:46:28 51°22.287 2°48.626 11.909611 3.939457 34.386176  
2002-11-18 08:46:34 51°22.309 2°48.621 11.927604 3.940616 34.390904  
2002-11-18 08:46:37 51°22.32 2°48.619 11.927604 3.940616 34.390904  
2002-11-18 08:46:43 51°22.341 2°48.612 11.944227 3.941565 34.39066  
2002-11-18 08:46:48 51°22.359 2°48.609 11.956338 3.943041 34.397734  
2002-11-18 08:46:53 51°22.377 2°48.604 11.969676 3.944622 34.403645  
2002-11-18 08:46:57 51°22.391 2°48.601 11.9811 3.946098 34.401969  
2002-11-18 08:47:03 51°22.412 2°48.595 11.990656 3.948101 34.409064  
2002-11-18 08:47:08 51°22.43 2°48.591 11.990656 3.948101 34.409064  
2002-11-18 08:47:13 51°22.448 2°48.587 11.998619 3.949471 34.408549  
2002-11-18 08:47:18 51°22.465 2°48.582 12.005853 3.952845 34.426047  
2002-11-18 08:47:22 51°22.48 2°48.578 12.015405 3.954426 34.429034  
2002-11-18 08:47:28 51°22.501 2°48.575 12.02482 3.956534 34.439325  
2002-11-18 08:47:33 51°22.519 2°48.573 12.030869 3.958115 34.441581  
2002-11-18 08:47:38 51°22.536 2°48.571 12.030869 3.958115 34.441581  
2002-11-18 08:47:42 51°22.551 2°48.569 12.03719 3.959697 34.448203  
2002-11-18 08:47:48 51°22.572 2°48.568 12.042737 3.96054 34.447659  
2002-11-18 08:47:53 51°22.59 2°48.566 12.048057 3.961805 34.452663  
2002-11-18 08:47:58 51°22.608 2°48.564 12.051194 3.962754 34.453143  
2002-11-18 08:48:01 51°22.618 2°48.563 12.055194 3.963492 34.454486  
2002-11-18 08:48:08 51°22.643 2°48.561 12.055194 3.963492 34.454486  
2002-11-18 08:48:13 51°22.661 2°48.559 12.058512 3.964862 34.459056  
2002-11-18 08:48:18 51°22.679 2°48.557 12.063013 3.965389 34.4569  
2002-11-18 08:48:21 51°22.689 2°48.556 12.067558 3.966654 34.465534  
2002-11-18 08:48:28 51°22.714 2°48.554 12.070739 3.96697 34.463513  
2002-11-18 08:48:33 51°22.732 2°48.551 12.074239 3.968025 34.468647  
2002-11-18 08:48:38 51°22.75 2°48.549 12.074239 3.968025 34.468647  
2002-11-18 08:48:42 51°22.764 2°48.547 12.07742 3.968024 34.465741  
2002-11-18 08:48:48 51°22.785 2°48.545 12.117535 3.968868 34.468831  
2002-11-18 08:48:53 51°22.803 2°48.543 12.083782 3.969184 34.466812  
2002-11-18 08:48:57 51°22.818 2°48.541 12.086735 3.970133 34.471648  
2002-11-18 08:49:01 51°22.832 2°48.54 12.089734 3.970765 34.474873  
2002-11-18 08:49:07 51°22.853 2°48.537 12.089734 3.970765 34.474873  
2002-11-18 08:49:13 51°22.874 2°48.534 12.092914 3.970871 34.472989  
2002-11-18 08:49:17 51°22.888 2°48.533 12.098139 3.971187 34.472423  
2002-11-18 08:49:21 51°22.903 2°48.531 12.101909 3.971503 34.473309  
2002-11-18 08:49:27 51°22.924 2°48.528 12.105952 3.971925 34.473038  
2002-11-18 08:49:33 51°22.945 2°48.526 12.109677 3.972347 34.474944  
2002-11-18 08:49:37 51°22.96 2°48.524 12.109677 3.972347 34.474944  
2002-11-18 08:49:41 51°22.974 2°48.522 12.111312 3.972874 34.477872  
2002-11-18 08:49:47 51°22.996 2°48.519 12.114401 3.97319 34.478032  
2002-11-18 08:49:53 51°23.017 2°48.516 12.118397 3.973928 34.480824  
2002-11-18 08:49:57 51°23.031 2°48.515 12.121985 3.974455 34.480847  
2002-11-18 08:50:02 51°23.049 2°48.513 12.125845 3.974982 34.481597  
2002-11-18 08:50:07 51°23.067 2°48.511 12.125845 3.974982 34.481597  
2002-11-18 08:50:13 51°23.088 2°48.508 12.129296 3.975404 34.482777  
2002-11-18 08:50:17 51°23.102 2°48.507 12.13252 3.976142 34.487745  
2002-11-18 08:50:21 51°23.116 2°48.505 12.135199 3.976563 34.488199  
2002-11-18 08:50:27 51°23.138 2°48.503 12.137015 3.976563 34.486023  
2002-11-18 08:50:33 51°23.159 2°48.5 12.14092 3.977301 34.490263  
2002-11-18 08:50:37 51°23.173 2°48.499 12.14092 3.977301 34.490263  
2002-11-18 08:50:41 51°23.188 2°48.497 12.180406 3.977828 34.492463  
2002-11-18 08:50:47 51°23.209 2°48.495 12.14437 3.978145 34.492622  
2002-11-18 08:50:53 51°23.231 2°48.494 12.147049 3.978145 34.489721  
2002-11-18 08:50:57 51°23.245 2°48.493 12.150045 3.979093 34.496001  
2002-11-18 08:51:01 51°23.26 2°48.492 12.153177 3.97962 34.4982  
2002-11-18 08:51:07 51°23.281 2°48.492 12.153177 3.97962 34.4982  
2002-11-18 08:51:13 51°23.302 2°48.49 12.154675 3.980042 34.497929  
2002-11-18 08:51:17 51°23.317 2°48.489 12.156717 3.980675 34.503323  
2002-11-18 08:51:21 51°23.331 2°48.488 12.158896 3.981307 34.507267  
2002-11-18 08:51:27 51°23.352 2°48.487 12.161528 3.981518 34.50713  
2002-11-18 08:51:33 51°23.374 2°48.486 12.163389 3.982045 34.507878  
2002-11-18 08:51:37 51°23.388 2°48.485 12.163389 3.982045 34.507878  
2002-11-18 08:51:41 51°23.402 2°48.485 12.16643 3.982045 34.506428  
2002-11-18 08:51:47 51°23.424 2°48.483 12.168018 3.982678 34.511821  
2002-11-18 08:51:53 51°23.445 2°48.481 12.170832 3.982678 34.50892  
2002-11-18 08:51:57 51°23.46 2°48.48 12.175052 3.98331 34.512862  
2002-11-18 08:52:01 51°23.474 2°48.48 12.178001 3.983626 34.51302  
2002-11-18 08:52:07 51°23.495 2°48.479 12.178001 3.983626 34.51302  
2002-11-18 08:52:13 51°23.516 2°48.478 12.179816 3.984154 34.516668  
2002-11-18 08:52:17 51°23.531 2°48.478 12.181813 3.984259 34.516237  
2002-11-18 08:52:21 51°23.545 2°48.476 12.183764 3.984786 34.518434  
2002-11-18 08:52:27 51°23.567 2°48.475 12.184399 3.985313 34.520631  
2002-11-18 08:52:33 51°23.588 2°48.475 12.187529 3.98584 34.523552  
2002-11-18 08:52:37 51°23.602 2°48.474 12.187529 3.98584 34.523552  
2002-11-18 08:52:42 51°23.62 2°48.474 12.189707 3.986367 34.525748  
2002-11-18 08:52:47 51°23.638 2°48.474 12.19007 3.986473 34.524592  
2002-11-18 08:52:53 51°23.659 2°48.473 12.19311 3.986684 34.525181  
2002-11-18 08:52:58 51°23.677 2°48.473 12.19447 3.987 34.526063  
2002-11-18 08:53:01 51°23.688 2°48.473 12.195423 3.987422 34.52869  
2002-11-18 08:53:07 51°23.709 2°48.473 12.195423 3.987422 34.52869  
2002-11-18 08:53:13 51°23.731 2°48.473 12.195695 3.987527 34.526809  
2002-11-18 08:53:17 51°23.745 2°48.473 12.197374 3.987949 34.529436  
2002-11-18 08:53:21 51°23.759 2°48.473 12.199097 3.98837 34.532062  
2002-11-18 08:53:27 51°23.781 2°48.473 12.201501 3.989214 34.537313  
2002-11-18 08:53:33 51°23.802 2°48.473 12.20318 3.989741 34.542408  
2002-11-18 08:53:37 51°23.817 2°48.473 12.20318 3.989741 34.542408  
2002-11-18 08:53:41 51°23.831 2°48.473 12.204903 3.989636 34.539214  
2002-11-18 08:53:47 51°23.853 2°48.473 12.206445 3.98953 34.538195  
2002-11-18 08:53:53 51°23.875 2°48.473 12.207489 3.990374 34.543446  
2002-11-18 08:53:57 51°23.889 2°48.473 12.209167 3.990479 34.54374  
2002-11-18 08:54:03 51°23.91 2°48.474 12.209892 3.990373 34.539822  
2002-11-18 08:54:08 51°23.928 2°48.472 12.209892 3.990373 34.539822  
2002-11-18 08:54:12 51°23.943 2°48.473 12.210754 3.990268 34.537354  
2002-11-18 08:54:17 51°23.961 2°48.472 12.211661 3.990795 34.540998  
2002-11-18 08:54:21 51°23.975 2°48.473 12.213747 3.990479 34.537942  
2002-11-18 08:54:27 51°23.997 2°48.472 12.215244 3.99069 34.537081  
2002-11-18 08:54:33 51°24.018 2°48.473 12.217284 3.99069 34.534907  
2002-11-18 08:54:37 51°24.033 2°48.473 12.217284 3.99069 34.534907  
2002-11-18 08:54:43 51°24.054 2°48.474 12.218101 3.990795 34.535926  
2002-11-18 08:54:47 51°24.069 2°48.473 12.219189 3.990479 34.532871  
2002-11-18 08:54:53 51°24.09 2°48.474 12.22064 3.9909 34.534047  
2002-11-18 08:54:57 51°24.105 2°48.473 12.220912 3.9909 34.533322  
2002-11-18 08:55:01 51°24.119 2°48.473 12.222046 3.991217 34.534204  
2002-11-18 08:55:07 51°24.141 2°48.474 12.222046 3.991217 34.534204  
2002-11-18 08:55:12 51°24.159 2°48.474 12.222635 3.991638 34.538277  
2002-11-18 08:55:17 51°24.177 2°48.474 12.224177 3.991322 34.53305  
2002-11-18 08:55:21 51°24.191 2°48.474 12.225039 3.991428 34.533344  
2002-11-18 08:55:27 51°24.213 2°48.475 12.226036 3.991849 34.536692  
2002-11-18 08:55:33 51°24.235 2°48.476 12.226535 3.991955 34.535538  
2002-11-18 08:55:37 51°24.249 2°48.476 12.226535 3.991955 34.535538  
2002-11-18 08:55:41 51°24.264 2°48.476 12.264883 3.991638 34.533208  
2002-11-18 08:55:47 51°24.286 2°48.477 12.228258 3.991322 34.527981  
2002-11-18 08:55:53 51°24.307 2°48.477 12.229029 3.991955 34.532642  
2002-11-18 08:55:57 51°24.322 2°48.477 12.229709 3.991849 34.532348  
2002-11-18 08:56:01 51°24.336 2°48.476 12.231386 3.991955 34.531918  
2002-11-18 08:56:07 51°24.358 2°48.476 12.231386 3.991955 34.531918  
2002-11-18 08:56:12 51°24.376 2°48.476 12.231885 3.99206 34.532212  
2002-11-18 08:56:17 51°24.394 2°48.476 12.233154 3.992165 34.532506  
2002-11-18 08:56:21 51°24.409 2°48.477 12.234288 3.99206 34.531488  
2002-11-18 08:56:27 51°24.431 2°48.477 12.235875 3.992376 34.53237  
2002-11-18 08:56:33 51°24.452 2°48.478 12.236555 3.99206 34.53004  
2002-11-18 08:56:37 51°24.467 2°48.478 12.236555 3.99206 34.53004  
2002-11-18 08:56:41 51°24.481 2°48.478 12.237779 3.991955 34.52685  
2002-11-18 08:56:47 51°24.503 2°48.479 12.239864 3.992165 34.527439  
2002-11-18 08:56:53 51°24.524 2°48.479 12.241541 3.992482 34.530492  
2002-11-18 08:56:57 51°24.539 2°48.479 12.242629 3.992271 34.525562  
2002-11-18 08:57:01 51°24.553 2°48.479 12.242992 3.992376 34.527303  
2002-11-18 08:57:08 51°24.579 2°48.48 12.242992 3.992376 34.527303  
2002-11-18 08:57:13 51°24.597 2°48.48 12.243581 3.992165 34.523097  
2002-11-18 08:57:18 51°24.615 2°48.481 12.244941 3.992165 34.522373  
2002-11-18 08:57:23 51°24.633 2°48.481 12.246301 3.991533 34.51482  
2002-11-18 08:57:29 51°24.655 2°48.482 12.248295 3.991427 34.511633  
2002-11-18 08:57:33 51°24.669 2°48.482 12.250516 3.991638 34.512945  
2002-11-18 08:57:38 51°24.687 2°48.482 12.2531 3.991638 34.512222  
2002-11-18 08:57:43 51°24.705 2°48.481 12.2531 3.991638 34.512222  
2002-11-18 08:57:48 51°24.724 2°48.481 12.252783 3.991638 34.510775  
2002-11-18 08:57:53 51°24.742 2°48.481 12.254913 3.991638 34.509329  
2002-11-18 08:57:57 51°24.756 2°48.482 12.257043 3.991322 34.504831  
2002-11-18 08:58:03 51°24.778 2°48.481 12.258946 3.991638 34.505714  
2002-11-18 08:58:08 51°24.796 2°48.482 12.259309 3.991743 34.506009  
2002-11-18 08:58:13 51°24.815 2°48.482 12.259309 3.991743 34.506009  
2002-11-18 08:58:18 51°24.833 2°48.482 12.260986 3.992165 34.508632  
2002-11-18 08:58:23 51°24.851 2°48.482 12.262209 3.991638 34.502823  
2002-11-18 08:58:28 51°24.869 2°48.482 12.2652 3.992165 34.506464  
2002-11-18 08:58:33 51°24.887 2°48.483 12.265699 3.992587 34.507641  
2002-11-18 08:58:38 51°24.905 2°48.483 12.265699 3.992587 34.507641  
2002-11-18 08:58:43 51°24.923 2°48.483 12.267783 3.992481 34.505901  
2002-11-18 08:58:48 51°24.941 2°48.484 12.272586 3.992165 34.501405  
2002-11-18 08:58:53 51°24.959 2°48.484 12.274444 3.99227 34.502422  
2002-11-18 08:58:57 51°24.974 2°48.485 12.28056 3.992376 34.499826  
2002-11-18 08:59:03 51°24.995 2°48.485 12.285498 3.992798 34.503894  
2002-11-18 08:59:08 51°25.013 2°48.485 12.285498 3.992798 34.503894  
2002-11-18 08:59:14 51°25.035 2°48.485 12.290934 3.992903 34.502744  
2002-11-18 08:59:18 51°25.05 2°48.486 12.332007 3.993325 34.503921  
2002-11-18 08:59:23 51°25.068 2°48.486 12.299268 3.993114 34.499721  
2002-11-18 08:59:28 51°25.086 2°48.486 12.306198 3.993957 34.504965  
2002-11-18 08:59:33 51°25.104 2°48.487 12.313172 3.993852 34.500338  
2002-11-18 08:59:38 51°25.122 2°48.487 12.313172 3.993852 34.500338  
2002-11-18 08:59:43 51°25.14 2°48.486 12.317292 3.99459 34.503121  
2002-11-18 08:59:48 51°25.159 2°48.486 12.320326 3.9948 34.499378  
2002-11-18 08:59:53 51°25.177 2°48.486 12.324174 3.996066 34.507964  
2002-11-18 08:59:58 51°25.195 2°48.486 12.328657 3.996593 34.510157  
2002-11-18 09:00:03 51°25.213 2°48.487 12.333229 3.997225 34.510479  
2002-11-18 09:00:08 51°25.232 2°48.487 12.336896 3.997963 34.511817  
2002-11-18 09:00:13 51°25.25 2°48.487 12.336896 3.997963 34.511817  
2002-11-18 09:00:18 51°25.268 2°48.487 12.340879 3.998912 34.517351  
2002-11-18 09:00:23 51°25.286 2°48.488 12.343006 3.999228 34.51679  
2002-11-18 09:00:28 51°25.304 2°48.488 12.345586 4.000388 34.524355  
2002-11-18 09:00:33 51°25.322 2°48.489 12.346763 4.000915 34.52366  
2002-11-18 09:00:38 51°25.34 2°48.489 12.346763 4.000915 34.52366  
2002-11-18 09:00:43 51°25.359 2°48.489 12.350021 4.001653 34.527882  
2002-11-18 09:00:48 51°25.377 2°48.489 12.353506 4.002707 34.53515  
2002-11-18 09:00:53 51°25.395 2°48.49 12.39359 4.002602 34.530527  
2002-11-18 09:00:58 51°25.413 2°48.49 12.363959 4.003445 34.535042  
2002-11-18 09:01:03 51°25.431 2°48.491 12.371199 4.004499 34.542309  
2002-11-18 09:01:08 51°25.449 2°48.491 12.371199 4.004499 34.542309  
2002-11-18 09:01:13 51°25.468 2°48.492 12.37622 4.004605 34.542602  
2002-11-18 09:01:18 51°25.486 2°48.492 12.381558 4.005027 34.543777  
2002-11-18 09:01:23 51°25.504 2°48.493 12.387665 4.00587 34.54829  
2002-11-18 09:01:28 51°25.521 2°48.493 12.390786 4.006503 34.550051  
2002-11-18 09:01:33 51°25.539 2°48.494 12.394314 4.006608 34.547459  
2002-11-18 09:01:38 51°25.557 2°48.495 12.394314 4.006608 34.547459  
2002-11-18 09:01:43 51°25.574 2°48.495 12.398158 4.007662 34.552558  
2002-11-18 09:01:48 51°25.59 2°48.495 12.400917 4.008506 34.554184  
2002-11-18 09:01:53 51°25.606 2°48.496 12.403766 4.008822 34.552901  
2002-11-18 09:01:58 51°25.621 2°48.497 12.408288 4.009454 34.554661  
2002-11-18 09:02:03 51°25.635 2°48.498 12.411181 4.009454 34.551056  
2002-11-18 09:02:08 51°25.649 2°48.498 12.411181 4.009454 34.551056  
2002-11-18 09:02:13 51°25.662 2°48.499 12.412764 4.010614 34.557167  
2002-11-18 09:02:17 51°25.672 2°48.5 12.412402 4.010298 34.552683  
2002-11-18 09:02:23 51°25.687 2°48.5 12.413985 4.010719 34.553136  
2002-11-18 09:02:28 51°25.699 2°48.5 12.415703 4.011141 34.552868  
2002-11-18 09:02:33 51°25.711 2°48.501 12.416517 4.011563 34.554762  
2002-11-18 09:02:37 51°25.72 2°48.503 12.416517 4.011563 34.554762  
2002-11-18 09:02:43 51°25.733 2°48.506 12.419365 4.011668 34.553614  
2002-11-18 09:02:48 51°25.744 2°48.51 12.421219 4.012195 34.556522  
2002-11-18 09:02:53 51°25.755 2°48.515 12.421851 4.01209 34.554067  
2002-11-18 09:02:57 51°25.763 2°48.52 12.423841 4.012301 34.554654  
2002-11-18 09:03:03 51°25.775 2°48.527 12.425785 4.012722 34.555107  
2002-11-18 09:03:08 51°25.785 2°48.534 12.425785 4.012722 34.555107  
2002-11-18 09:03:13 51°25.794 2°48.541 12.427954 4.012933 34.557134  
2002-11-18 09:03:18 51°25.804 2°48.548 12.428045 4.012828 34.55396  
2002-11-18 09:03:23 51°25.813 2°48.555 12.42809 4.013355 34.556147  
2002-11-18 09:03:28 51°25.822 2°48.563 12.429989 4.013777 34.560201  
2002-11-18 09:03:33 51°25.832 2°48.57 12.43035 4.013566 34.556013  
2002-11-18 09:03:38 51°25.841 2°48.576 12.43035 4.013566 34.556013  
2002-11-18 09:03:43 51°25.851 2°48.582 12.469349 4.013987 34.558626  
2002-11-18 09:03:48 51°25.86 2°48.588 12.469258 4.013882 34.555453  
2002-11-18 09:03:53 51°25.87 2°48.594 12.433559 4.014304 34.559506  
2002-11-18 09:03:58 51°25.879 2°48.6 12.433062 4.014304 34.559506  
2002-11-18 09:04:03 51°25.889 2°48.605 12.435232 4.014093 34.556759  
2002-11-18 09:04:08 51°25.899 2°48.611 12.435232 4.014093 34.556759  
2002-11-18 09:04:13 51°25.908 2°48.616 12.436181 4.014831 34.562412  
2002-11-18 09:04:18 51°25.918 2°48.621 12.436362 4.014515 34.557932  
2002-11-18 09:04:23 51°25.928 2°48.626 12.435819 4.01462 34.559666  
2002-11-18 09:04:29 51°25.939 2°48.632 12.43704 4.014831 34.560972  
2002-11-18 09:04:33 51°25.947 2°48.635 12.435639 4.015147 34.563292  
2002-11-18 09:04:38 51°25.956 2°48.64 12.435639 4.015147 34.563292  
2002-11-18 09:04:43 51°25.965 2°48.643 12.436181 4.015253 34.562865  
2002-11-18 09:04:49 51°25.975 2°48.647 12.436 4.015674 34.564758  
2002-11-18 09:04:53 51°25.981 2°48.649 12.437492 4.015569 34.564464  
2002-11-18 09:04:58 51°25.989 2°48.652 12.438305 4.015463 34.562731  
2002-11-18 09:05:03 51°25.996 2°48.653 12.438486 4.015885 34.568224  
2002-11-18 09:05:09 51°26.003 2°48.654 12.438486 4.015885 34.568224  
2002-11-18 09:05:13 51°26.008 2°48.654 12.442328 4.015991 34.568517  
2002-11-18 09:05:19 51°26.015 2°48.653 12.448971 4.016201 34.570544  
2002-11-18 09:05:24 51°26.02 2°48.651 12.45105 4.016096 34.56881  
2002-11-18 09:05:29 51°26.025 2°48.649 12.453174 4.016096 34.56737  
2002-11-18 09:05:33 51°26.029 2°48.648 12.452225 4.016201 34.566943  
2002-11-18 09:05:39 51°26.034 2°48.644 12.452225 4.016201 34.566943  
2002-11-18 09:05:43 51°26.037 2°48.642 12.45227 4.016307 34.567956  
2002-11-18 09:05:49 51°26.042 2°48.639 12.453309 4.016623 34.568835  
2002-11-18 09:05:53 51°26.045 2°48.637 12.452722 4.017045 34.568568  
2002-11-18 09:05:59 51°26.049 2°48.633 12.453174 4.017677 34.571766  
2002-11-18 09:06:03 51°26.051 2°48.63 12.455207 4.017888 34.571632  
2002-11-18 09:06:09 51°26.055 2°48.627 12.455207 4.017888 34.571632  
2002-11-18 09:06:13 51°26.057 2°48.624 12.456427 4.017572 34.568593  
2002-11-18 09:06:17 51°26.058 2°48.622 12.457737 4.018415 34.575256  
2002-11-18 09:06:23 51°26.061 2°48.618 12.458008 4.017677 34.568166  
2002-11-18 09:06:29 51°26.064 2°48.614 12.461488 4.018099 34.572937  
2002-11-18 09:06:33 51°26.065 2°48.612 12.497262 4.018204 34.571791  
2002-11-18 09:06:39 51°26.068 2°48.608 12.497262 4.018204 34.571791  
2002-11-18 09:06:43 51°26.069 2°48.606 12.457873 4.018521 34.573389  
2002-11-18 09:06:49 51°26.071 2°48.602 12.4609 4.018837 34.574988  
2002-11-18 09:06:54 51°26.073 2°48.598 12.464244 4.018837 34.574988  
2002-11-18 09:06:59 51°26.074 2°48.595 12.465915 4.019364 34.578612  
2002-11-18 09:07:03 51°26.075 2°48.593 12.466638 4.019048 34.574854  
2002-11-18 09:07:09 51°26.076 2°48.589 12.466638 4.019048 34.574854  
2002-11-18 09:07:14 51°26.077 2°48.586 12.46718 4.019048 34.574854  
2002-11-18 09:07:19 51°26.079 2°48.583 12.465509 4.019364 34.577172  
2002-11-18 09:07:23 51°26.08 2°48.581 12.462572 4.019153 34.574427  
2002-11-18 09:07:29 51°26.081 2°48.577 12.465192 4.01947 34.574586  
2002-11-18 09:07:33 51°26.082 2°48.575 12.469349 4.019786 34.576904  
2002-11-18 09:07:39 51°26.082 2°48.571 12.469349 4.019786 34.576904  
2002-11-18 09:07:43 51°26.083 2°48.569 12.46962 4.019575 34.57416  
2002-11-18 09:07:49 51°26.084 2°48.565 12.4684 4.019997 34.57821  
2002-11-18 09:07:53 51°26.084 2°48.562 12.472014 4.019997 34.57821  
2002-11-18 09:07:59 51°26.085 2°48.559 12.469755 4.020102 34.579942  
2002-11-18 09:08:03 51°26.085 2°48.557 12.466096 4.020313 34.580528  
2002-11-18 09:08:09 51°26.085 2°48.553 12.466096 4.020313 34.580528  
2002-11-18 09:08:13 51°26.085 2°48.551 12.463114 4.020208 34.578076  
2002-11-18 09:08:19 51°26.085 2°48.547 12.461262 4.020418 34.579381  
2002-11-18 09:08:23 51°26.086 2°48.545 12.458957 4.020208 34.575917  
2002-11-18 09:08:29 51°26.086 2°48.542 12.458822 4.020418 34.577222  
2002-11-18 09:08:33 51°26.086 2°48.539 12.455478 4.020629 34.579967  
2002-11-18 09:08:39 51°26.086 2°48.536 12.455478 4.020629 34.579967  
2002-11-18 09:08:43 51°26.086 2°48.534 12.493649 4.020735 34.582419  
2002-11-18 09:08:49 51°26.085 2°48.53 12.460629 4.019997 34.579649  
2002-11-18 09:08:53 51°26.085 2°48.528 12.458957 4.019575 34.574879  
2002-11-18 09:08:59 51°26.085 2°48.525 12.456291 4.020102 34.582101  
2002-11-18 09:09:03 51°26.085 2°48.523 12.456563 4.020102 34.582821  
2002-11-18 09:09:09 51°26.085 2°48.52 12.456563 4.020102 34.582821  
2002-11-18 09:09:14 51°26.084 2°48.518 12.460132 4.01968 34.58021  
2002-11-18 09:09:17 51°26.084 2°48.516 12.462527 4.019786 34.581943  
2002-11-18 09:09:21 51°26.084 2°48.515 12.467677 4.019786 34.581223  
2002-11-18 09:09:27 51°26.083 2°48.512 12.472963 4.020208 34.584554  
2002-11-18 09:09:33 51°26.083 2°48.51 12.47739 4.01968 34.58093  
2002-11-18 09:09:38 51°26.082 2°48.508 12.47739 4.01968 34.58093  
2002-11-18 09:09:42 51°26.082 2°48.506 12.477254 4.019786 34.581223  
2002-11-18 09:09:47 51°26.082 2°48.504 12.509589 4.020102 34.581382  
2002-11-18 09:09:53 51°26.08 2°48.502 12.468084 4.020102 34.579942  
2002-11-18 09:09:57 51°26.08 2°48.501 12.463114 4.020629 34.582126  
2002-11-18 09:10:03 51°26.079 2°48.499 12.462527 4.020524 34.577515  
2002-11-18 09:10:07 51°26.079 2°48.498 12.462527 4.020524 34.577515  
2002-11-18 09:10:13 51°26.079 2°48.494 12.462436 4.020946 34.579406  
2002-11-18 09:10:17 51°26.078 2°48.493 12.469484 4.021262 34.581004  
2002-11-18 09:10:21 51°26.078 2°48.492 12.475312 4.021051 34.581138  
2002-11-18 09:10:29 51°26.077 2°48.489 12.476441 4.020946 34.583004  
2002-11-18 09:10:33 51°26.076 2°48.488 12.472104 4.020629 34.581406  
2002-11-18 09:10:38 51°26.075 2°48.486 12.472104 4.020629 34.581406  
2002-11-18 09:10:43 51°26.075 2°48.485 12.500739 4.020313 34.580528  
2002-11-18 09:10:49 51°26.074 2°48.483 12.460629 4.020524 34.581833  
2002-11-18 09:10:53 51°26.073 2°48.481 12.459545 4.020524 34.578235  
2002-11-18 09:10:59 51°26.073 2°48.479 12.458099 4.021473 34.583748  
2002-11-18 09:11:03 51°26.072 2°48.479 12.45715 4.021051 34.579699  
2002-11-18 09:11:09 51°26.071 2°48.477 12.45715 4.021051 34.579699  
2002-11-18 09:11:14 51°26.07 2°48.476 12.45584 4.020629 34.578528  
2002-11-18 09:11:19 51°26.07 2°48.474 12.456066 4.020946 34.583724  
2002-11-18 09:11:23 51°26.069 2°48.473 12.455975 4.02084 34.58559  
2002-11-18 09:11:29 51°26.068 2°48.472 12.459816 4.020208 34.582394  
2002-11-18 09:11:33 51°26.067 2°48.471 12.463837 4.020524 34.586152  
2002-11-18 09:11:39 51°26.066 2°48.469 12.463837 4.020524 34.586152  
2002-11-18 09:11:43 51°26.066 2°48.468 12.463295 4.020208 34.584554  
2002-11-18 09:11:49 51°26.065 2°48.466 12.504035 4.020102 34.582821  
2002-11-18 09:11:53 51°26.064 2°48.466 12.474047 4.019786 34.581223  
2002-11-18 09:11:59 51°26.063 2°48.464 12.471291 4.020313 34.585567  
2002-11-18 09:12:03 51°26.063 2°48.463 12.469349 4.020313 34.583407  
2002-11-18 09:12:09 51°26.061 2°48.462 12.469349 4.020313 34.583407  
2002-11-18 09:12:14 51°26.061 2°48.461 12.466277 4.020313 34.581967  
2002-11-18 09:12:19 51°26.06 2°48.46 12.463295 4.020735 34.583858  
2002-11-18 09:12:23 51°26.059 2°48.459 12.461713 4.020524 34.578954  
2002-11-18 09:12:29 51°26.058 2°48.458 12.461488 4.021262 34.583882  
2002-11-18 09:12:33 51°26.058 2°48.457 12.459454 4.021051 34.581858  
2002-11-18 09:12:39 51°26.057 2°48.456 12.459454 4.021051 34.581858  
2002-11-18 09:12:43 51°26.056 2°48.455 12.459048 4.021473 34.586627  
2002-11-18 09:12:49 51°26.055 2°48.454 12.458144 4.021156 34.585029  
2002-11-18 09:12:53 51°26.054 2°48.453 12.457602 4.02084 34.584871  
2002-11-18 09:12:59 51°26.053 2°48.453 12.457783 4.020735 34.584578  
2002-11-18 09:13:03 51°26.052 2°48.452 12.458144 4.02084 34.58559  
2002-11-18 09:13:09 51°26.051 2°48.451 12.458144 4.02084 34.58559  
2002-11-18 09:13:13 51°26.051 2°48.451 12.457873 4.020102 34.581382  
2002-11-18 09:13:19 51°26.05 2°48.45 12.457286 4.020735 34.588177  
2002-11-18 09:13:23 51°26.049 2°48.449 12.456653 4.020313 34.583407  
2002-11-18 09:13:29 51°26.048 2°48.449 12.456427 4.020313 34.584847  
2002-11-18 09:13:33 51°26.047 2°48.448 12.455343 4.020419 34.586579  
2002-11-18 09:13:38 51°26.046 2°48.448 12.455343 4.020419 34.586579  
2002-11-18 09:13:44 51°26.045 2°48.448 12.454846 4.020208 34.583834  
2002-11-18 09:13:49 51°26.044 2°48.447 12.455117 4.020208 34.583834  
2002-11-18 09:13:53 51°26.044 2°48.447 12.455388 4.019891 34.580076  
2002-11-18 09:13:57 51°26.043 2°48.446 12.455975 4.020208 34.584554  
2002-11-18 09:14:03 51°26.042 2°48.446 12.456066 4.020102 34.583541  
2002-11-18 09:14:07 51°26.041 2°48.446 12.456066 4.020102 34.583541  
2002-11-18 09:14:13 51°26.04 2°48.445 12.456111 4.020313 34.586287  
2002-11-18 09:14:17 51°26.039 2°48.445 12.455975 4.020208 34.585994  
2002-11-18 09:14:21 51°26.038 2°48.445 12.456291 4.020102 34.584981  
2002-11-18 09:14:27 51°26.037 2°48.445 12.456201 4.019997 34.583248  
2002-11-18 09:14:33 51°26.037 2°48.444 12.456201 4.020102 34.584261  
2002-11-18 09:14:37 51°26.036 2°48.444 12.456201 4.020102 34.584261  
2002-11-18 09:14:41 51°26.035 2°48.444 12.455749 4.020208 34.584554  
2002-11-18 09:14:47 51°26.034 2°48.444 12.455252 4.019997 34.583968  
2002-11-18 09:14:53 51°26.033 2°48.444 12.455026 4.019891 34.582236  
2002-11-18 09:14:59 51°26.032 2°48.444 12.455614 4.019997 34.583248  
2002-11-18 09:15:03 51°26.031 2°48.444 12.455614 4.020102 34.584261  
2002-11-18 09:15:09 51°26.03 2°48.444 12.455388 4.019997 34.583968  
2002-11-18 09:15:13 51°26.029 2°48.444 12.455388 4.019997 34.583968  
2002-11-18 09:15:19 51°26.028 2°48.444 12.45584 4.020102 34.584981  
2002-11-18 09:15:23 51°26.028 2°48.444 12.455704 4.019891 34.582236  
2002-11-18 09:15:29 51°26.026 2°48.444 12.455885 4.020208 34.585274  
2002-11-18 09:15:33 51°26.026 2°48.444 12.45584 4.020419 34.587299  
2002-11-18 09:15:38 51°26.025 2°48.444 12.45584 4.020419 34.587299  
2002-11-18 09:15:43 51°26.024 2°48.444 12.456111 4.020208 34.585994  
2002-11-18 09:15:49 51°26.023 2°48.445 12.456337 4.01968 34.58021  
2002-11-18 09:15:53 51°26.022 2°48.445 12.456111 4.019786 34.581223  
2002-11-18 09:15:59 51°26.021 2°48.446 12.45584 4.020102 34.584261  
2002-11-18 09:16:03 51°26.02 2°48.446 12.456066 4.020208 34.584554  
2002-11-18 09:16:09 51°26.019 2°48.447 12.456066 4.020208 34.584554  
2002-11-18 09:16:13 51°26.019 2°48.447 12.456111 4.020208 34.586714  
2002-11-18 09:16:19 51°26.018 2°48.447 12.456337 4.019997 34.583968  
2002-11-18 09:16:23 51°26.017 2°48.448 12.456517 4.019786 34.581943  
2002-11-18 09:16:29 51°26.016 2°48.448 12.456066 4.019997 34.583248  
2002-11-18 09:16:33 51°26.015 2°48.448 12.456427 4.019891 34.581516  
2002-11-18 09:16:39 51°26.014 2°48.449 12.456427 4.019891 34.581516  
2002-11-18 09:16:43 51°26.013 2°48.45 12.456337 4.020524 34.589032  
2002-11-18 09:16:49 51°26.012 2°48.45 12.456517 4.020208 34.584554  
2002-11-18 09:16:54 51°26.012 2°48.45 12.456337 4.020102 34.582821  
2002-11-18 09:16:59 51°26.011 2°48.451 12.456427 4.020102 34.583541  
2002-11-18 09:17:04 51°26.01 2°48.451 12.456337 4.020313 34.586287  
2002-11-18 09:17:09 51°26.009 2°48.451 12.456337 4.020313 34.586287  
2002-11-18 09:17:14 51°26.009 2°48.452 12.456698 4.020102 34.583541  
2002-11-18 09:17:19 51°26.008 2°48.453 12.456653 4.020208 34.583834  
2002-11-18 09:17:24 51°26.007 2°48.453 12.456698 4.019891 34.581516  
2002-11-18 09:17:29 51°26.007 2°48.454 12.456517 4.019786 34.581223  
2002-11-18 09:17:34 51°26.006 2°48.455 12.456653 4.020102 34.583541  
2002-11-18 09:17:39 51°26.006 2°48.456 12.456653 4.020102 34.583541  
2002-11-18 09:17:44 51°26.006 2°48.457 12.456879 4.020208 34.583114  
2002-11-18 09:17:49 51°26.005 2°48.459 12.457014 4.020208 34.583834  
2002-11-18 09:17:53 51°26.005 2°48.459 12.456879 4.020102 34.582821  
2002-11-18 09:17:57 51°26.005 2°48.46 12.457195 4.020102 34.582821  
2002-11-18 09:18:03 51°26.004 2°48.462 12.457014 4.019891 34.580796  
2002-11-18 09:18:08 51°26.004 2°48.463 12.457014 4.019891 34.580796  
2002-11-18 09:18:14 51°26.004 2°48.464 12.45706 4.020102 34.582821  
2002-11-18 09:18:19 51°26.004 2°48.464 12.457014 4.020208 34.583114  
2002-11-18 09:18:23 51°26.003 2°48.465 12.456698 4.020629 34.586445  
2002-11-18 09:18:29 51°26.003 2°48.466 12.456427 4.020208 34.583114  
2002-11-18 09:18:34 51°26.002 2°48.466 12.456111 4.020313 34.583407  
2002-11-18 09:18:39 51°26.002 2°48.467 12.456111 4.020313 34.583407  
2002-11-18 09:18:44 51°26.001 2°48.468 12.455749 4.020418 34.584419  
2002-11-18 09:18:49 51°26.001 2°48.468 12.455478 4.020208 34.583834  
2002-11-18 09:18:54 51°26.001 2°48.469 12.455388 4.020418 34.585859  
2002-11-18 09:18:59 51°26 2°48.469 12.454891 4.020418 34.585139  
2002-11-18 09:19:04 51°25.999 2°48.47 12.454981 4.019891 34.580796  
2002-11-18 09:19:09 51°25.999 2°48.47 12.454665 4.020102 34.583541  
2002-11-18 09:19:14 51°25.998 2°48.471 12.454665 4.020102 34.583541  
2002-11-18 09:19:18 51°25.998 2°48.471 12.4548 4.020313 34.584127  
2002-11-18 09:19:24 51°25.997 2°48.471 12.454755 4.020102 34.583541  
2002-11-18 09:19:29 51°25.996 2°48.471 12.454484 4.01968 34.579491  
2002-11-18 09:19:34 51°25.995 2°48.471 12.454484 4.020102 34.582821  
2002-11-18 09:19:39 51°25.995 2°48.471 12.454484 4.020102 34.582821  
2002-11-18 09:19:44 51°25.994 2°48.472 12.454529 4.020313 34.586287  
2002-11-18 09:19:49 51°25.993 2°48.472 12.454258 4.019997 34.583248  
2002-11-18 09:19:54 51°25.992 2°48.472 12.453942 4.019997 34.583248  
2002-11-18 09:19:59 51°25.991 2°48.473 12.454032 4.019891 34.582236  
2002-11-18 09:20:04 51°25.99 2°48.473 12.45462 4.019575 34.579918  
2002-11-18 09:20:09 51°25.989 2°48.473 12.45462 4.019575 34.579918  
2002-11-18 09:20:13 51°25.988 2°48.473 12.45462 4.019997 34.57893  
2002-11-18 09:20:19 51°25.987 2°48.473 12.454755 4.019997 34.583248  
2002-11-18 09:20:23 51°25.986 2°48.473 12.454665 4.019997 34.583968  
2002-11-18 09:20:29 51°25.984 2°48.474 12.454484 3.96939 34.097687  
2002-11-18 09:20:33 51°25.983 2°48.474 12.454755 3.938922 33.805851  
2002-11-18 09:20:39 51°25.982 2°48.474 12.454755 3.938922 33.805851  
2002-11-18 09:20:43 51°25.981 2°48.475 12.454439 3.94103 33.826739  
2002-11-18 09:20:49 51°25.98 2°48.475 12.454981 3.945353 33.866713  
2002-11-18 09:20:53 51°25.979 2°48.475 12.455252 4.019997 34.581809  
2002-11-18 09:20:59 51°25.977 2°48.476 12.455614 4.020313 34.584847  
2002-11-18 09:21:04 51°25.975 2°48.477 12.456201 4.020102 34.583541  
2002-11-18 09:21:09 51°25.973 2°48.478 12.456201 4.020102 34.583541  
2002-11-18 09:21:13 51°25.971 2°48.479 12.463973 4.020102 34.584261  
2002-11-18 09:21:19 51°25.969 2°48.481 12.470568 4.019786 34.580503  
2002-11-18 09:21:23 51°25.967 2°48.482 12.501868 4.020102 34.582821  
2002-11-18 09:21:29 51°25.964 2°48.485 12.45959 4.020313 34.584847  
2002-11-18 09:21:34 51°25.962 2°48.486 12.456698 4.020313 34.583407  
2002-11-18 09:21:39 51°25.96 2°48.489 12.456698 4.020313 34.583407  
2002-11-18 09:21:44 51°25.958 2°48.491 12.456201 4.020418 34.58226  
2002-11-18 09:21:49 51°25.956 2°48.494 12.455343 4.02084 34.582711  
2002-11-18 09:21:54 51°25.954 2°48.495 12.454529 4.020313 34.578369  
2002-11-18 09:21:59 51°25.953 2°48.498 12.454032 4.02084 34.582711  
2002-11-18 09:22:04 51°25.951 2°48.5 12.453942 4.020735 34.583858  
2002-11-18 09:22:09 51°25.949 2°48.503 12.453942 4.020735 34.583858  
2002-11-18 09:22:14 51°25.948 2°48.505 12.456291 4.020418 34.5837  
2002-11-18 09:22:18 51°25.946 2°48.507 12.456291 4.020418 34.5837  
2002-11-18 09:22:24 51°25.945 2°48.51 12.455749 4.020418 34.5837  
2002-11-18 09:22:29 51°25.943 2°48.512 12.454846 4.020102 34.582821  
2002-11-18 09:22:34 51°25.942 2°48.515 12.454981 4.020102 34.583541  
2002-11-18 09:22:39 51°25.941 2°48.518 12.454981 4.020102 34.583541  
2002-11-18 09:22:44 51°25.939 2°48.521 12.454484 4.020102 34.583541  
2002-11-18 09:22:49 51°25.938 2°48.523 12.453083 4.019575 34.577758  
2002-11-18 09:22:54 51°25.937 2°48.526 12.45358 4.01968 34.578771  
2002-11-18 09:22:58 51°25.936 2°48.528 12.45358 4.019997 34.581089  
2002-11-18 09:23:04 51°25.935 2°48.531 12.452722 4.019786 34.579783  
2002-11-18 09:23:09 51°25.935 2°48.534 12.452722 4.019786 34.579783  
2002-11-18 09:23:14 51°25.934 2°48.537 12.453174 4.020208 34.583834  
2002-11-18 09:23:18 51°25.934 2°48.539 12.452722 4.019891 34.581516  
2002-11-18 09:23:24 51°25.932 2°48.542 12.451682 4.019997 34.583248  
2002-11-18 09:23:29 51°25.932 2°48.545 12.451366 4.019891 34.581516  
2002-11-18 09:23:34 51°25.931 2°48.548 12.452134 4.019786 34.581223  
2002-11-18 09:23:39 51°25.931 2°48.55 12.45236 4.019575 34.579918  
2002-11-18 09:23:44 51°25.93 2°48.552 12.45236 4.019575 34.579918  
2002-11-18 09:23:49 51°25.93 2°48.555 12.451908 4.019786 34.582663  
2002-11-18 09:23:54 51°25.929 2°48.557 12.451095 4.01968 34.58093  
2002-11-18 09:23:59 51°25.929 2°48.56 12.451999 4.01947 34.578185  
2002-11-18 09:24:04 51°25.928 2°48.562 12.453445 4.01968 34.58021  
2002-11-18 09:24:09 51°25.928 2°48.565 12.453445 4.01968 34.58021  
2002-11-18 09:24:14 51°25.928 2°48.567 12.452993 4.019364 34.573574  
2002-11-18 09:24:19 51°25.927 2°48.569 12.450462 4.01968 34.578771  
2002-11-18 09:24:23 51°25.927 2°48.571 12.450688 4.01947 34.577465  
2002-11-18 09:24:29 51°25.927 2°48.574 12.450914 4.019575 34.579918  
2002-11-18 09:24:34 51°25.927 2°48.576 12.451502 4.019364 34.577892  
2002-11-18 09:24:38 51°25.927 2°48.578 12.451502 4.019364 34.577892  
2002-11-18 09:24:44 51°25.927 2°48.581 12.451728 4.01947 34.578185  
2002-11-18 09:24:49 51°25.927 2°48.583 12.453445 4.019153 34.575147  
2002-11-18 09:24:54 51°25.926 2°48.585 12.453083 4.018942 34.573841  
2002-11-18 09:24:59 51°25.927 2°48.588 12.45227 4.019048 34.575574  
2002-11-18 09:25:04 51°25.927 2°48.59 12.452134 4.019259 34.576879  
2002-11-18 09:25:09 51°25.927 2°48.592 12.452134 4.019259 34.576879  
2002-11-18 09:25:14 51°25.927 2°48.594 12.448971 4.01947 34.579625  
2002-11-18 09:25:18 51°25.927 2°48.596 12.447028 4.019364 34.577172  
2002-11-18 09:25:24 51°25.927 2°48.598 12.445763 4.019364 34.576453  
2002-11-18 09:25:29 51°25.928 2°48.6 12.445582 4.019575 34.578478  
2002-11-18 09:25:34 51°25.928 2°48.602 12.446892 4.019364 34.576453  
2002-11-18 09:25:39 51°25.928 2°48.604 12.446892 4.019364 34.576453  
2002-11-18 09:25:44 51°25.929 2°48.606 12.447932 4.019364 34.577892  
2002-11-18 09:25:49 51°25.929 2°48.608 12.448745 4.019259 34.579759  
2002-11-18 09:25:54 51°25.929 2°48.61 12.449152 4.019153 34.579466  
2002-11-18 09:25:59 51°25.93 2°48.612 12.44879 4.019048 34.579893  
2002-11-18 09:26:04 51°25.93 2°48.613 12.448293 4.018837 34.577868  
2002-11-18 09:26:09 51°25.931 2°48.615 12.448293 4.018837 34.577868  
2002-11-18 09:26:13 51°25.932 2°48.617 12.448293 4.018521 34.574109  
2002-11-18 09:26:19 51°25.934 2°48.619 12.447977 4.019048 34.579173  
2002-11-18 09:26:23 51°25.935 2°48.621 12.448158 4.018942 34.576001  
2002-11-18 09:26:29 51°25.938 2°48.623 12.448022 4.018942 34.576001  
2002-11-18 09:26:34 51°25.94 2°48.625 12.4487 4.019048 34.577014  
2002-11-18 09:26:39 51°25.942 2°48.626 12.4487 4.019048 34.577014  
2002-11-18 09:26:44 51°25.945 2°48.626 12.446847 4.019259 34.578319  
2002-11-18 09:26:49 51°25.948 2°48.627 12.44635 4.018415 34.573097  
2002-11-18 09:26:54 51°25.95 2°48.626 12.447118 4.018626 34.573682  
2002-11-18 09:26:59 51°25.954 2°48.626 12.44748 4.019048 34.579173  
2002-11-18 09:27:04 51°25.956 2°48.624 12.447796 4.019048 34.578453  
2002-11-18 09:27:09 51°25.96 2°48.622 12.447796 4.019048 34.578453  
2002-11-18 09:27:14 51°25.963 2°48.62 12.447344 4.019048 34.578453  
2002-11-18 09:27:19 51°25.966 2°48.617 12.447615 4.018942 34.57816  
2002-11-18 09:27:24 51°25.969 2°48.615 12.445898 4.018732 34.576135  
2002-11-18 09:27:29 51°25.972 2°48.612 12.449061 4.019048 34.579173  
2002-11-18 09:27:34 51°25.974 2°48.61 12.454032 4.019153 34.580906  
2002-11-18 09:27:39 51°25.977 2°48.608 12.454032 4.019153 34.580906  
2002-11-18 09:27:44 51°25.979 2°48.605 12.451999 4.019048 34.578453  
2002-11-18 09:27:49 51°25.981 2°48.603 12.446983 4.019153 34.580186  
2002-11-18 09:27:54 51°25.984 2°48.6 12.447344 4.018943 34.57888  
2002-11-18 09:27:59 51°25.986 2°48.598 12.448248 4.019575 34.583517  
2002-11-18 09:28:04 51°25.988 2°48.596 12.448384 4.01947 34.581065  
2002-11-18 09:28:09 51°25.99 2°48.593 12.448384 4.01947 34.581065  
2002-11-18 09:28:14 51°25.992 2°48.591 12.447118 4.019259 34.578319  
2002-11-18 09:28:19 51°25.994 2°48.589 12.446666 4.01947 34.579625  
2002-11-18 09:28:23 51°25.996 2°48.587 12.447028 4.019153 34.578746  
2002-11-18 09:28:29 51°25.998 2°48.585 12.447706 4.019786 34.584823  
2002-11-18 09:28:33 51°26 2°48.584 12.448293 4.01947 34.580345  
2002-11-18 09:28:39 51°26.002 2°48.582 12.448248 4.018942 34.577441  
2002-11-18 09:28:44 51°26.004 2°48.58 12.448248 4.018942 34.577441  
2002-11-18 09:28:49 51°26.005 2°48.578 12.448971 4.019575 34.582797  
2002-11-18 09:28:54 51°26.007 2°48.576 12.450327 4.019153 34.580186  
2002-11-18 09:28:59 51°26.008 2°48.575 12.450824 4.01947 34.582504  
2002-11-18 09:29:04 51°26.01 2°48.573 12.451773 4.019681 34.58453  
2002-11-18 09:29:09 51°26.011 2°48.572 12.451773 4.019681 34.58453  
2002-11-18 09:29:14 51°26.013 2°48.57 12.452134 4.019786 34.584823  
2002-11-18 09:29:19 51°26.014 2°48.568 12.452631 4.019048 34.577014  
2002-11-18 09:29:24 51°26.016 2°48.567 12.451863 4.019891 34.584396  
2002-11-18 09:29:29 51°26.017 2°48.566 12.450824 4.019575 34.579198  
2002-11-18 09:29:34 51°26.018 2°48.564 12.450417 4.019891 34.581516  
2002-11-18 09:29:39 51°26.02 2°48.562 12.450417 4.019891 34.581516